Time;durP1;ratioP1;P1;durP2;ratioP2;P2;SDS_P1;SDS_P2;PMS_P1;PMS_P2;Temp;Humidity;BMP_temperature;BMP_pressure;BME280_temperature;BME280_humidity;BME280_pressure;Samples;Min_cycle;Max_cycle;Signal;HPM_P1;HPM_P2
2022/07/11 00:01:48;;;;;;;5.60;2.58;;;;;;;12.65;67.61;98923.84;1350256;85;22420;-70
2022/07/11 00:03:49;;;;;;;5.15;2.65;;;;;;;12.67;67.63;98928.58;1353513;86;21039;-70
2022/07/11 00:05:50;;;;;;;4.00;2.37;;;;;;;12.66;67.64;98930.84;1349216;85;21091;-70
2022/07/11 00:07:51;;;;;;;8.85;3.10;;;;;;;12.67;67.63;98923.74;1352484;86;21099;-70
2022/07/11 00:09:52;;;;;;;7.90;2.62;;;;;;;12.67;67.67;98927.71;1350678;85;21042;-70
2022/07/11 00:11:53;;;;;;;8.63;2.85;;;;;;;12.68;67.68;98922.36;1352754;85;21138;-70
2022/07/11 00:13:54;;;;;;;;;;;;;;;12.68;67.71;98928.97;1352700;86;21063;-71
2022/07/11 00:15:54;;;;;;;6.47;2.50;;;;;;;12.67;67.79;98926.39;1350417;86;20295;-70
2022/07/11 00:17:56;;;;;;;;;;;;;;;12.65;67.78;98933.09;1352382;85;21096;-70
2022/07/11 00:19:58;;;;;;;16.17;2.60;;;;;;;12.64;67.86;98927.89;1351349;86;20250;-70
2022/07/11 00:21:59;;;;;;;8.30;3.05;;;;;;;12.60;67.85;98928.56;1344629;85;20999;-70
2022/07/11 00:24:00;;;;;;;9.25;2.92;;;;;;;12.59;67.87;98929.48;1349474;86;21050;-70
2022/07/11 00:26:01;;;;;;;8.53;2.70;;;;;;;12.57;67.88;98930.03;1355324;86;21039;-70
2022/07/11 00:28:02;;;;;;;;;;;;;;;12.57;67.92;98924.74;1352345;86;21579;-70
2022/07/11 00:30:03;;;;;;;3.27;2.55;;;;;;;12.57;68.06;98930.03;1352298;85;20188;-70
2022/07/11 00:32:05;;;;;;;7.37;3.02;;;;;;;12.57;68.02;98934.00;1353931;86;21043;-70
2022/07/11 00:34:06;;;;;;;8.55;2.40;;;;;;;12.58;68.00;98929.10;1349996;86;20976;-70
2022/07/11 00:36:07;;;;;;;7.58;2.40;;;;;;;12.58;68.06;98931.74;1355172;86;22155;-70
2022/07/11 00:38:08;;;;;;;;;;;;;;;12.60;68.10;98924.59;1356300;85;21071;-70
2022/07/11 00:40:09;;;;;;;4.85;2.33;;;;;;;12.60;68.18;98925.44;1349565;86;20171;-70
2022/07/11 00:42:10;;;;;;;;;;;;;;;12.58;68.13;98919.84;1356342;85;21035;-69
2022/07/11 00:44:14;;;;;;;4.65;2.60;;;;;;;12.56;68.20;98926.55;1351091;85;20175;-69
2022/07/11 00:46:15;;;;;;;4.83;2.22;;;;;;;12.54;68.16;98924.92;1351412;85;21526;-70
2022/07/11 00:48:16;;;;;;;5.05;2.65;;;;;;;12.52;68.16;98926.34;1353206;86;21110;-70
2022/07/11 00:50:17;;;;;;;;;;;;;;;12.50;68.19;98923.40;1353216;85;21059;-70
2022/07/11 00:52:19;;;;;;;5.42;2.83;;;;;;;12.48;68.33;98926.61;1352491;86;20163;-70
2022/07/11 00:54:22;;;;;;;8.95;2.72;;;;;;;12.46;68.30;98926.70;1354740;86;21599;-70
2022/07/11 00:56:26;;;;;;;5.53;2.85;;;;;;;12.44;68.29;98929.41;1350652;86;21008;-70
2022/07/11 00:58:28;;;;;;;6.97;2.72;;;;;;;12.43;68.37;98925.08;1359585;83;21058;-70
2022/07/11 01:00:29;;;;;;;10.48;2.87;;;;;;;12.43;68.38;98936.11;1405060;82;21016;-70
2022/07/11 01:02:30;;;;;;;7.15;2.77;;;;;;;12.43;68.43;98935.66;1405621;83;21305;-70
2022/07/11 01:04:31;;;;;;;9.05;3.10;;;;;;;12.42;68.46;98932.63;1407325;83;21016;-70
2022/07/11 01:06:31;;;;;;;8.43;3.10;;;;;;;12.41;68.50;98927.42;1405445;83;21449;-70
2022/07/11 01:08:35;;;;;;;11.90;3.37;;;;;;;12.39;68.55;98934.13;1405740;82;21550;-70
2022/07/11 01:10:36;;;;;;;5.08;2.98;;;;;;;12.39;68.64;98931.93;1403703;83;21075;-70
2022/07/11 01:12:37;;;;;;;;;;;;;;;12.38;68.69;98933.73;1406285;82;21650;-70
2022/07/11 01:14:38;;;;;;;4.70;3.47;;;;;;;12.36;68.81;98939.56;1409095;83;20147;-70
2022/07/11 01:16:39;;;;;;;6.15;3.10;;;;;;;12.35;68.79;98933.91;1404675;83;22353;-70
2022/07/11 01:18:41;;;;;;;;;;;;;;;12.35;68.85;98937.88;1407277;83;21082;-70
2022/07/11 01:20:41;;;;;;;;;;;;;;;12.34;68.92;98932.20;1406547;82;20132;-70
2022/07/11 01:25:58;;;;;;;6.42;2.95;;;;;;;12.34;68.97;98936.16;1404595;83;22510;-70
2022/07/11 01:28:01;;;;;;;6.25;3.12;;;;;;;12.31;68.97;98936.80;1383497;84;21505;-69
2022/07/11 01:30:05;;;;;;;7.72;2.83;;;;;;;12.31;69.04;98937.66;1408802;83;20964;-70
2022/07/11 01:32:07;;;;;;;5.60;3.17;;;;;;;12.31;69.04;98936.80;1406614;83;21066;-70
2022/07/11 01:34:09;;;;;;;3.55;2.95;;;;;;;12.30;69.06;98935.95;1410083;83;21015;-70
2022/07/11 01:36:10;;;;;;;6.00;3.00;;;;;;;12.29;69.09;98940.84;1384760;84;21629;-70
2022/07/11 01:38:11;;;;;;;9.43;3.45;;;;;;;12.27;69.08;98944.06;1408009;83;21030;-70
2022/07/11 01:40:12;;;;;;;4.85;3.35;;;;;;;12.25;69.15;98937.55;1408349;82;21027;-69
2022/07/11 01:42:13;;;;;;;5.37;3.40;;;;;;;12.24;69.20;98933.67;1408562;83;21031;-70
2022/07/11 01:44:14;;;;;;;3.62;2.98;;;;;;;12.24;69.22;98938.95;1385116;84;21515;-70
2022/07/11 01:46:16;;;;;;;;;;;;;;;12.23;69.14;98931.95;1413716;82;21010;-70
2022/07/11 01:48:17;;;;;;;6.55;3.20;;;;;;;12.22;69.37;98932.41;1403706;83;20137;-70
2022/07/11 01:50:18;;;;;;;8.78;3.17;;;;;;;12.21;69.36;98933.81;1409103;83;20962;-70
2022/07/11 01:52:19;;;;;;;7.87;3.27;;;;;;;12.20;69.39;98928.17;1387639;83;21047;-70
2022/07/11 01:54:20;;;;;;;6.85;3.12;;;;;;;12.19;69.43;98931.74;1410077;83;21058;-69
2022/07/11 01:56:22;;;;;;;8.23;3.85;;;;;;;12.16;69.51;98920.03;1407748;83;21952;-70
2022/07/11 01:58:23;;;;;;;4.62;3.08;;;;;;;12.16;69.49;98926.63;1410148;82;21046;-70
2022/07/11 02:00:24;;;;;;;12.82;4.05;;;;;;;12.11;69.56;98912.81;1377125;84;21043;-70
2022/07/11 02:02:25;;;;;;;;;;;;;;;12.18;69.61;98926.06;1405225;83;21026;-70
2022/07/11 02:04:26;;;;;;;5.47;3.02;;;;;;;12.16;69.67;98923.99;1378756;85;20506;-70
2022/07/11 02:06:27;;;;;;;9.60;3.20;;;;;;;12.15;69.66;98926.24;1380152;82;21004;-70
2022/07/11 02:08:28;;;;;;;;;;;;;;;12.13;69.70;98920.17;1377729;84;21014;-70
2022/07/11 02:10:29;;;;;;;7.17;3.15;;;;;;;12.11;69.81;98918.94;1394884;83;20444;-70
2022/07/11 02:12:30;;;;;;;4.72;2.90;;;;;;;12.09;69.79;98920.83;1403267;83;21052;-70
2022/07/11 02:14:31;;;;;;;6.70;3.22;;;;;;;12.11;69.85;98923.39;1376857;85;20993;-70
2022/07/11 02:16:32;;;;;;;8.18;3.20;;;;;;;12.11;69.86;98921.59;1377132;84;21090;-70
2022/07/11 02:18:34;;;;;;;6.28;3.27;;;;;;;12.11;69.87;98918.94;1378556;85;20995;-70
2022/07/11 02:20:35;;;;;;;8.13;3.25;;;;;;;12.11;69.89;98924.70;1375850;84;21030;-70
2022/07/11 02:22:36;;;;;;;4.25;3.20;;;;;;;12.11;69.95;98926.03;1374326;85;21042;-70
2022/07/11 02:24:37;;;;;;;7.55;3.67;;;;;;;12.04;70.00;98913.14;1377567;82;20994;-69
2022/07/11 02:26:38;;;;;;;6.05;3.15;;;;;;;12.10;69.99;98927.80;1400673;83;21045;-70
2022/07/11 02:28:40;;;;;;;6.05;3.12;;;;;;;12.08;70.05;98927.05;1400942;83;21031;-70
2022/07/11 02:30:43;;;;;;;7.53;3.10;;;;;;;12.09;70.08;98930.92;1402285;83;21012;-70
2022/07/11 02:32:44;;;;;;;3.52;3.10;;;;;;;12.07;70.11;98932.81;1401753;82;21054;-69
2022/07/11 02:34:45;;;;;;;7.65;3.52;;;;;;;12.07;70.14;98937.22;1381326;83;21067;-70
2022/07/11 02:36:46;;;;;;;20.90;3.25;;;;;;;12.06;70.18;98929.78;1404177;83;21500;-70
2022/07/11 02:38:47;;;;;;;13.68;3.37;;;;;;;12.06;70.21;98930.26;1377728;84;20984;-71
2022/07/11 02:40:48;;;;;;;5.80;3.67;;;;;;;12.07;70.24;98933.26;1402471;83;21076;-70
2022/07/11 02:42:49;;;;;;;7.45;3.37;;;;;;;12.07;70.27;98926.66;1379382;85;21015;-70
2022/07/11 02:44:50;;;;;;;14.73;4.40;;;;;;;12.06;70.32;98933.73;1401934;82;20996;-71
2022/07/11 02:46:51;;;;;;;5.42;3.37;;;;;;;12.06;70.30;98935.54;1376857;83;22266;-70
2022/07/11 02:48:53;;;;;;;16.52;3.08;;;;;;;12.07;70.40;98928.84;1392797;84;21056;-70
2022/07/11 02:50:54;;;;;;;7.72;3.42;;;;;;;12.11;70.43;98931.31;1403467;82;22139;-70
2022/07/11 02:52:55;;;;;;;7.08;2.95;;;;;;;12.09;70.40;98928.28;1401910;83;21094;-70
2022/07/11 02:54:56;;;;;;;19.77;3.33;;;;;;;12.13;70.51;98934.70;1375723;84;21043;-71
2022/07/11 02:56:57;;;;;;;5.15;3.05;;;;;;;12.14;70.52;98928.02;1405283;83;21090;-71
2022/07/11 02:58:58;;;;;;;9.68;3.30;;;;;;;12.17;70.49;98930.96;1365851;85;21069;-70
2022/07/11 03:00:59;;;;;;;6.30;3.50;;;;;;;12.19;70.53;98931.27;1403646;83;21008;-70
2022/07/11 03:03:01;;;;;;;6.87;2.80;;;;;;;12.21;70.58;98928.53;1402617;83;21652;-70
2022/07/11 03:05:03;;;;;;;8.25;3.60;;;;;;;12.24;70.55;98931.02;1377520;83;21014;-70
2022/07/11 03:07:05;;;;;;;10.90;3.52;;;;;;;12.26;70.58;98931.78;1403221;83;21070;-70
2022/07/11 03:09:07;;;;;;;7.03;2.98;;;;;;;12.29;70.62;98927.63;1382158;84;21075;-71
2022/07/11 03:11:08;;;;;;;8.00;3.50;;;;;;;12.30;70.59;98932.47;1377915;85;21537;-71
2022/07/11 03:13:09;;;;;;;11.48;3.83;;;;;;;12.29;70.63;98932.92;1377560;85;21015;-71
2022/07/11 03:15:10;;;;;;;5.50;3.00;;;;;;;12.30;70.66;98931.98;1403448;80;21008;-71
2022/07/11 03:17:11;;;;;;;6.53;3.40;;;;;;;12.31;70.73;98929.73;1404778;82;21040;-71
2022/07/11 03:19:12;;;;;;;6.05;3.20;;;;;;;12.33;70.70;98929.65;1378707;83;21019;-71
2022/07/11 03:21:13;;;;;;;7.33;3.22;;;;;;;12.33;70.71;98931.81;1401943;83;21039;-71
2022/07/11 03:23:14;;;;;;;8.40;3.40;;;;;;;12.34;70.78;98926.91;1403223;83;21063;-71
2022/07/11 03:25:15;;;;;;;9.23;4.08;;;;;;;12.37;70.81;98934.66;1375971;84;21526;-71
2022/07/11 03:27:16;;;;;;;;;;;;;;;12.39;70.81;98934.57;1388254;84;22325;-71
2022/07/11 03:29:17;;;;;;;5.47;3.45;;;;;;;12.40;70.92;98936.28;1402067;83;20159;-71
2022/07/11 03:31:18;;;;;;;5.55;3.45;;;;;;;12.39;70.92;98932.80;1403605;83;20988;-71
2022/07/11 03:33:19;;;;;;;10.90;3.05;;;;;;;12.39;70.88;98936.77;1400141;83;21476;-71
2022/07/11 03:37:40;;;;;;;9.40;3.47;;;;;;;12.43;70.96;98942.27;1402966;82;21047;-70
2022/07/11 03:39:41;;;;;;;11.48;3.47;;;;;;;12.45;70.98;98935.56;1404833;82;21708;-71
2022/07/11 03:41:42;;;;;;;;;;;;;;;12.47;71.00;98944.73;1402448;83;21017;-71
2022/07/11 03:43:43;;;;;;;8.23;3.80;;;;;;;12.48;71.04;98943.31;1403195;83;20445;-71
2022/07/11 03:45:44;;;;;;;11.85;3.77;;;;;;;12.47;70.97;98940.77;1406597;82;21039;-71
2022/07/11 03:47:47;;;;;;;11.93;4.00;;;;;;;12.48;71.01;98945.95;1378677;84;21643;-71
2022/07/11 03:49:48;;;;;;;8.70;3.35;;;;;;;12.50;70.96;98951.16;1403085;82;21067;-71
2022/07/11 03:51:50;;;;;;;9.65;4.00;;;;;;;12.50;71.00;98949.83;1380398;82;21021;-70
2022/07/11 03:53:51;;;;;;;7.72;3.40;;;;;;;12.49;71.02;98948.99;1379449;83;21086;-70
2022/07/11 03:55:52;;;;;;;6.97;3.75;;;;;;;12.50;71.08;98952.03;1401817;83;21118;-70
2022/07/11 03:57:53;;;;;;;7.83;3.65;;;;;;;12.53;71.04;98949.65;1379896;85;21021;-71
2022/07/11 03:59:55;;;;;;;3.90;2.98;;;;;;;12.53;71.03;98949.65;1402524;81;21079;-70
2022/07/11 04:01:56;;;;;;;12.47;3.67;;;;;;;12.55;71.09;98953.08;1381330;82;21103;-71
2022/07/11 04:03:56;;;;;;;;;;;;;;;12.57;71.08;98949.86;1406923;82;21035;-69
2022/07/11 04:05:57;;;;;;;5.77;3.20;;;;;;;12.59;71.16;98959.89;1401222;83;20164;-70
2022/07/11 04:07:58;;;;;;;15.05;4.08;;;;;;;12.59;71.13;98955.93;1404449;83;21003;-70
2022/07/11 04:09:59;;;;;;;12.68;3.98;;;;;;;12.59;71.08;98953.28;1381007;84;21031;-71
2022/07/11 04:12:00;;;;;;;;;;;;;;;12.59;71.07;98951.97;1405920;83;22178;-71
2022/07/11 04:14:01;;;;;;;4.97;2.85;;;;;;;12.60;71.20;98951.03;1399197;84;20194;-70
2022/07/11 04:16:02;;;;;;;10.72;4.03;;;;;;;12.59;71.28;98955.93;1400496;83;21112;-71
2022/07/11 04:18:03;;;;;;;;;;;;;;;12.60;71.42;98953.20;1405277;83;21548;-71
2022/07/11 04:20:05;;;;;;;6.85;3.62;;;;;;;12.59;71.54;98956.77;1399239;82;20146;-69
2022/07/11 04:22:06;;;;;;;3.83;3.08;;;;;;;12.57;71.50;98959.12;1402515;83;20995;-70
2022/07/11 04:24:07;;;;;;;6.78;3.75;;;;;;;12.53;71.53;98956.27;1377356;83;21585;-71
2022/07/11 04:26:08;;;;;;;10.30;4.67;;;;;;;12.52;71.62;98961.19;1401527;83;21011;-70
2022/07/11 04:28:09;;;;;;;8.03;3.58;;;;;;;12.51;71.67;98956.84;1376636;83;21068;-70
2022/07/11 04:30:10;;;;;;;8.40;4.05;;;;;;;12.50;71.73;98951.16;1403314;82;21107;-69
2022/07/11 04:32:11;;;;;;;9.10;3.70;;;;;;;12.43;71.79;98950.20;1402675;83;21374;-70
2022/07/11 04:34:13;;;;;;;9.63;4.15;;;;;;;12.47;71.80;98955.30;1378581;85;21099;-69
2022/07/11 04:36:14;;;;;;;10.08;3.65;;;;;;;12.47;71.87;98951.34;1379070;85;21075;-69
2022/07/11 04:38:16;;;;;;;8.93;3.75;;;;;;;12.46;71.93;98954.91;1405378;82;21824;-70
2022/07/11 04:40:18;;;;;;;7.58;4.05;;;;;;;12.49;71.99;98958.25;1376840;85;21071;-70
2022/07/11 04:42:18;;;;;;;;;;;;;;;12.52;72.05;98956.74;1404752;82;21019;-70
2022/07/11 04:44:19;;;;;;;10.75;3.55;;;;;;;12.57;72.22;98959.12;1396396;84;20201;-70
2022/07/11 04:46:20;;;;;;;;;;;;;;;12.59;72.17;98955.93;1405011;83;21144;-70
2022/07/11 04:48:21;;;;;;;6.97;4.10;;;;;;;12.59;72.17;98958.09;1395850;83;20198;-70
2022/07/11 04:50:23;;;;;;;7.87;3.65;;;;;;;12.62;72.17;98956.23;1406297;83;21096;-71
2022/07/11 04:52:26;;;;;;;;;;;;;;;12.64;72.15;98953.02;1381498;85;21102;-71
2022/07/11 04:54:26;;;;;;;14.18;4.17;;;;;;;12.64;72.19;98955.20;1393525;82;20141;-70
2022/07/11 04:56:27;;;;;;;7.20;3.87;;;;;;;12.67;72.20;98960.77;1402797;82;21020;-70
2022/07/11 04:58:32;;;;;;;10.15;3.87;;;;;;;12.71;72.19;98963.16;1377808;84;21031;-71
2022/07/11 05:00:31;;;;;;;9.90;3.90;;;;;;;12.74;72.19;98964.30;1400125;83;21090;-71
2022/07/11 05:02:33;;;;;;;10.32;4.28;;;;;;;12.79;72.18;98968.00;1394922;84;21107;-70
2022/07/11 05:04:33;;;;;;;17.40;4.35;;;;;;;12.82;72.16;98964.33;1393144;83;21539;-70
2022/07/11 05:06:34;;;;;;;11.88;4.17;;;;;;;12.85;72.15;98967.66;1394162;83;20977;-70
2022/07/11 05:08:36;;;;;;;7.95;4.20;;;;;;;12.87;72.24;98971.53;1375876;85;21016;-70
2022/07/11 05:10:37;;;;;;;16.35;4.10;;;;;;;12.88;72.42;98971.44;1393798;84;21118;-71
2022/07/11 05:12:38;;;;;;;7.37;4.35;;;;;;;12.87;72.50;98965.77;1394319;83;21760;-70
2022/07/11 05:14:39;;;;;;;;;;;;;;;12.86;72.55;98972.02;1395616;84;21091;-70
2022/07/11 05:16:40;;;;;;;12.57;4.40;;;;;;;12.83;72.63;98969.53;1400038;83;20543;-70
2022/07/11 05:18:41;;;;;;;7.20;3.83;;;;;;;12.78;72.65;98964.52;1395591;83;21444;-70
2022/07/11 05:20:42;;;;;;;8.93;4.65;;;;;;;12.75;72.75;98960.73;1396435;84;21495;-70
2022/07/11 05:22:43;;;;;;;5.90;4.30;;;;;;;12.78;72.99;98958.38;1394607;84;21188;-70
2022/07/11 05:24:43;;;;;;;;;;;;;;;12.81;73.02;98959.97;1394007;84;21053;-69
2022/07/11 05:26:46;;;;;;;8.63;4.00;;;;;;;12.82;73.15;98957.72;1401125;83;20131;-70
2022/07/11 05:28:47;;;;;;;8.20;4.58;;;;;;;12.82;73.11;98961.68;1371573;85;21079;-71
2022/07/11 05:30:48;;;;;;;6.92;3.90;;;;;;;12.82;73.14;98963.00;1394787;84;21568;-69
2022/07/11 05:32:49;;;;;;;7.20;4.25;;;;;;;12.84;73.12;98961.98;1397460;83;21064;-70
2022/07/11 05:34:50;;;;;;;16.60;4.50;;;;;;;12.86;73.15;98967.17;1392342;84;21678;-70
2022/07/11 05:36:52;;;;;;;14.53;4.45;;;;;;;12.86;73.15;98969.83;1394238;84;21013;-70
2022/07/11 05:38:53;;;;;;;9.58;4.22;;;;;;;12.88;73.17;98973.25;1395689;82;20991;-71
2022/07/11 05:40:54;;;;;;;;;;;;;;;12.92;73.25;98971.65;1395910;84;21616;-70
2022/07/11 05:42:55;;;;;;;12.95;4.25;;;;;;;12.95;73.34;98977.23;1402236;83;20130;-71
2022/07/11 05:44:56;;;;;;;11.05;5.10;;;;;;;12.99;73.33;98981.86;1393620;83;21023;-70
2022/07/11 05:47:01;;;;;;;8.25;4.47;;;;;;;13.02;73.32;98978.58;1392224;83;21028;-70
2022/07/11 05:49:02;;;;;;;10.30;4.28;;;;;;;13.06;73.28;98984.07;1393737;84;21017;-71
2022/07/11 05:51:03;;;;;;;7.85;4.20;;;;;;;13.09;73.29;98981.23;1395613;83;21036;-70
2022/07/11 05:53:04;;;;;;;;;;;;;;;13.11;73.36;98974.08;1396452;83;21036;-70
2022/07/11 05:55:06;;;;;;;13.38;4.17;;;;;;;13.19;73.35;98986.00;1400410;83;20489;-70
2022/07/11 05:57:07;;;;;;;5.80;3.85;;;;;;;13.04;73.36;98954.22;1393522;84;21056;-70
2022/07/11 05:59:08;;;;;;;8.40;3.95;;;;;;;13.30;73.30;98987.53;1391830;83;21131;-71
2022/07/11 06:01:10;;;;;;;5.40;3.70;;;;;;;13.34;73.29;98983.77;1393002;84;21032;-70
2022/07/11 06:03:11;;;;;;;9.83;3.95;;;;;;;13.40;73.25;98983.45;1391730;84;21576;-71
2022/07/11 06:05:12;;;;;;;8.00;4.17;;;;;;;13.44;73.25;98984.97;1391720;84;21021;-71
2022/07/11 06:08:40;;;;;;;11.20;4.60;;;;;;;13.51;73.27;98981.94;1392432;82;21099;-71
2022/07/11 06:09:15;;;;;;;12.28;4.22;;;;;;;13.57;73.28;98982.91;1387853;84;21092;-70
2022/07/11 06:11:16;;;;;;;9.53;4.53;;;;;;;13.64;73.30;98982.91;1393088;82;21091;-70
2022/07/11 06:13:17;;;;;;;9.03;3.50;;;;;;;13.73;73.25;98982.33;1395691;84;21031;-71
2022/07/11 06:15:18;;;;;;;12.00;4.62;;;;;;;13.79;73.12;98983.29;1394396;83;21658;-70
2022/07/11 06:17:19;;;;;;;13.43;3.45;;;;;;;13.84;73.03;98980.83;1375310;85;21067;-70
2022/07/11 06:19:20;;;;;;;;;;;;;;;13.89;72.97;98983.57;1396682;84;21715;-69
2022/07/11 06:21:21;;;;;;;7.55;3.77;;;;;;;13.97;73.12;98981.78;1394678;84;20128;-70
2022/07/11 06:23:22;;;;;;;8.25;4.00;;;;;;;14.06;73.06;98978.54;1394603;84;21004;-71
2022/07/11 06:25:23;;;;;;;6.10;3.70;;;;;;;14.12;72.95;98984.80;1393712;83;21033;-71
2022/07/11 06:27:24;;;;;;;;;;;;;;;14.21;72.90;98974.56;1395149;84;21055;-71
2022/07/11 06:29:25;;;;;;;6.53;3.67;;;;;;;14.29;72.75;98980.23;1394561;83;20183;-71
2022/07/11 06:31:25;;;;;;;;;;;;;;;14.35;72.68;98978.50;1395133;83;21083;-71
2022/07/11 06:33:26;;;;;;;10.03;4.00;;;;;;;14.43;72.74;98981.52;1393065;83;20154;-71
2022/07/11 06:35:27;;;;;;;9.05;4.05;;;;;;;14.54;72.59;98981.28;1392238;84;21481;-70
2022/07/11 06:37:28;;;;;;;9.10;3.72;;;;;;;14.60;72.42;98977.77;1393285;82;21277;-70
2022/07/11 06:39:29;;;;;;;;;;;;;;;14.66;72.31;98974.38;1396854;84;21048;-71
2022/07/11 06:41:30;;;;;;;10.32;3.60;;;;;;;14.78;72.38;98977.56;1393195;83;20161;-70
2022/07/11 06:43:31;;;;;;;;;;;;;;;14.78;72.38;98977.56;1395451;84;21123;-70
2022/07/11 06:45:33;;;;;;;12.45;3.50;;;;;;;14.86;72.18;98978.40;1399624;82;20142;-70
2022/07/11 06:47:34;;;;;;;8.48;3.45;;;;;;;14.94;72.09;98982.73;1391277;83;21128;-70
2022/07/11 06:49:35;;;;;;;14.53;3.25;;;;;;;15.03;71.89;98985.23;1395113;84;21001;-70
2022/07/11 06:51:36;;;;;;;;;;;;;;;15.06;71.69;98983.20;1396961;83;20989;-70
2022/07/11 06:53:37;;;;;;;8.23;2.98;;;;;;;15.08;71.49;98983.97;1400379;83;20172;-70
2022/07/11 06:55:38;;;;;;;7.17;3.17;;;;;;;15.09;71.47;98986.14;1370808;85;21043;-70
2022/07/11 06:57:39;;;;;;;;;;;;;;;15.14;71.51;98989.34;1374115;84;21014;-71
2022/07/11 06:59:40;;;;;;;4.47;3.05;;;;;;;15.19;71.38;98987.24;1393331;82;20201;-71
2022/07/11 07:01:40;;;;;;;;;;;;;;;15.24;71.39;98984.27;1399491;82;21535;-71
2022/07/11 07:03:41;;;;;;;8.00;3.00;;;;;;;15.30;71.34;98987.36;1385461;83;20162;-70
2022/07/11 07:05:42;;;;;;;8.58;3.15;;;;;;;15.36;71.33;98987.42;1386101;84;21570;-70
2022/07/11 07:07:43;;;;;;;;;;;;;;;15.35;71.23;98979.07;1385061;84;21328;-70
2022/07/11 07:09:44;;;;;;;13.90;3.30;;;;;;;15.46;71.27;98986.31;1385693;84;20457;-70
2022/07/11 07:11:45;;;;;;;10.05;3.27;;;;;;;15.54;71.17;98982.66;1396904;83;21048;-70
2022/07/11 07:13:47;;;;;;;;;;;;;;;15.64;70.95;98980.22;1396341;83;21438;-71
2022/07/11 07:15:48;;;;;;;12.82;2.98;;;;;;;15.72;70.72;98976.55;1384178;84;20147;-71
2022/07/11 07:17:49;;;;;;;;;;;;;;;15.73;70.62;98974.73;1389344;83;20988;-70
2022/07/11 07:19:50;;;;;;;4.40;2.80;;;;;;;15.78;70.58;98970.82;1384212;84;20226;-70
2022/07/11 07:21:51;;;;;;;13.38;3.25;;;;;;;15.80;70.56;98974.23;1392752;83;21010;-70
2022/07/11 07:23:52;;;;;;;;;;;;;;;15.76;69.99;98959.43;1395780;83;21161;-71
2022/07/11 07:25:53;;;;;;;4.53;2.87;;;;;;;15.78;70.21;98964.64;1370403;85;20183;-71
2022/07/11 07:27:54;;;;;;;6.22;3.12;;;;;;;15.76;70.09;98964.75;1393512;83;21041;-70
2022/07/11 07:29:55;;;;;;;;;;;;;;;15.75;69.97;98967.03;1386376;84;21622;-70
2022/07/11 07:31:56;;;;;;;4.95;2.92;;;;;;;15.75;70.13;98959.55;1386341;84;20143;-71
2022/07/11 07:33:57;;;;;;;;;;;;;;;15.85;70.30;98967.75;1384365;83;20980;-71
2022/07/11 07:35:58;;;;;;;9.28;3.27;;;;;;;15.94;70.01;98965.30;1385060;84;20178;-72
2022/07/11 07:38:00;;;;;;;;;;;;;;;15.97;69.79;98965.56;1393024;83;21021;-71
2022/07/11 07:40:01;;;;;;;7.60;3.47;;;;;;;16.00;69.60;98961.34;1390782;83;20194;-71
2022/07/11 07:42:02;;;;;;;;;;;;;;;15.98;69.65;98966.78;1388565;82;22427;-71
2022/07/11 07:44:03;;;;;;;11.08;3.58;;;;;;;15.97;69.65;98968.22;1393106;83;20284;-71
2022/07/11 07:46:04;;;;;;;;;;;;;;;15.95;69.61;98960.81;1385879;84;21012;-71
2022/07/11 07:48:05;;;;;;;13.05;3.72;;;;;;;15.94;69.46;98968.44;1386960;83;20333;-71
2022/07/11 07:50:06;;;;;;;;;;;;;;;15.89;69.30;98962.59;1388833;84;21110;-71
2022/07/11 07:52:07;;;;;;;19.48;4.35;;;;;;;15.82;69.26;98963.04;1392557;84;20154;-71
2022/07/11 07:54:08;;;;;;;9.88;3.77;;;;;;;15.75;69.33;98965.70;1391754;83;21585;-70
2022/07/11 07:56:09;;;;;;;;;;;;;;;15.67;69.21;98960.06;1387455;84;21099;-71
2022/07/11 07:58:10;;;;;;;11.63;4.00;;;;;;;15.63;69.31;98959.91;1391558;84;20174;-70
2022/07/11 08:02:30;;;;;;;13.05;3.50;;;;;;;15.69;69.22;98950.66;1389046;83;20502;-71
2022/07/11 08:04:32;;;;;;;;;;;;;;;15.84;69.51;98950.97;1395404;84;21054;-70
2022/07/11 08:06:34;;;;;;;10.85;3.37;;;;;;;16.00;69.38;98943.61;1386873;84;20163;-71
2022/07/11 08:08:35;;;;;;;5.62;2.95;;;;;;;16.12;69.41;98937.88;1370377;85;21213;-70
2022/07/11 08:10:36;;;;;;;11.85;3.17;;;;;;;16.25;69.07;98931.67;1382436;84;21336;-71
2022/07/11 08:12:37;;;;;;;;;;;;;;;16.41;68.88;98937.58;1386355;83;21105;-71
2022/07/11 08:14:38;;;;;;;18.57;2.55;;;;;;;16.53;68.64;98936.30;1388182;84;20224;-71
2022/07/11 08:16:39;;;;;;;;;;;;;;;16.61;68.52;98931.27;1391173;83;21085;-71
2022/07/11 08:18:40;;;;;;;8.38;3.00;;;;;;;16.66;68.03;98931.78;1386323;84;20187;-71
2022/07/11 08:20:41;;;;;;;;;;;;;;;16.71;68.05;98929.61;1387153;82;22139;-71
2022/07/11 08:22:41;;;;;;;7.60;2.50;;;;;;;16.81;68.04;98923.98;1380692;84;20141;-71
2022/07/11 08:24:43;;;;;;;;;;;;;;;16.94;67.91;98919.94;1388790;84;21554;-71
2022/07/11 08:26:44;;;;;;;10.70;2.45;;;;;;;17.11;67.83;98915.15;1385263;84;20139;-71
2022/07/11 08:28:45;;;;;;;;;;;;;;;17.27;67.78;98906.84;1390218;84;21075;-71
2022/07/11 08:30:46;;;;;;;2.85;1.92;;;;;;;17.37;67.43;98899.82;1385097;83;20151;-71
2022/07/11 08:32:47;;;;;;;6.45;2.17;;;;;;;17.41;67.45;98898.62;1385951;85;20992;-71
2022/07/11 08:34:49;;;;;;;7.50;2.33;;;;;;;17.42;66.98;98896.33;1380923;83;21522;-72
2022/07/11 08:36:51;;;;;;;5.42;2.40;;;;;;;17.38;66.85;98898.86;1384346;84;21012;-72
2022/07/11 08:38:52;;;;;;;5.03;1.98;;;;;;;17.35;66.74;98895.11;1384557;85;21035;-71
2022/07/11 08:40:54;;;;;;;4.58;1.70;;;;;;;17.33;66.68;98889.04;1386111;82;21523;-71
2022/07/11 08:43:01;;;;;;;6.75;2.10;;;;;;;17.29;67.01;98899.56;1386543;84;21515;-72
2022/07/11 08:45:00;;;;;;;8.28;2.60;;;;;;;17.25;66.81;98895.44;1385285;84;21055;-72
2022/07/11 08:47:03;;;;;;;6.53;2.25;;;;;;;17.17;66.66;98894.22;1386334;84;21527;-71
2022/07/11 08:49:05;;;;;;;4.92;2.00;;;;;;;17.12;66.80;98888.39;1384747;84;21059;-71
2022/07/11 08:51:08;;;;;;;13.15;2.55;;;;;;;17.19;66.89;98887.44;1382910;85;21451;-71
2022/07/11 08:53:10;;;;;;;5.67;2.45;;;;;;;17.35;67.12;98887.95;1387315;82;20980;-72
2022/07/11 08:55:11;;;;;;;13.60;2.42;;;;;;;17.58;66.86;98879.13;1384388;84;21072;-71
2022/07/11 08:57:13;;;;;;;11.48;2.58;;;;;;;17.77;66.69;98875.36;1384881;84;20972;-71
2022/07/11 08:59:19;;;;;;;5.35;2.50;;;;;;;17.97;66.07;98880.48;1384298;82;21070;-72
2022/07/11 09:01:29;;;;;;;5.65;2.55;;;;;;;18.13;65.69;98872.06;1384302;84;21066;-70
2022/07/11 09:03:31;;;;;;;7.25;2.08;;;;;;;18.25;65.48;98868.90;1394502;83;21353;-72
2022/07/11 09:05:32;;;;;;;9.38;1.90;;;;;;;18.44;65.13;98866.91;1394086;84;21005;-71
2022/07/11 09:07:34;;;;;;;9.55;2.02;;;;;;;18.66;64.89;98868.64;1392696;84;21064;-71
2022/07/11 09:09:35;;;;;;;4.35;1.87;;;;;;;18.80;64.52;98871.48;1394622;82;21550;-71
2022/07/11 09:11:55;;;;;;;4.67;1.45;;;;;;;18.84;64.19;98884.94;1393451;84;21036;-71
2022/07/11 09:13:56;;;;;;;12.68;2.37;;;;;;;18.71;63.19;98873.58;1394580;84;21075;-71
2022/07/11 09:16:08;;;;;;;10.25;2.02;;;;;;;18.50;62.94;98884.23;1372053;84;21192;-72
2022/07/11 09:18:38;;;;;;;13.83;2.10;;;;;;;18.33;63.01;98886.92;1395661;84;21075;-71
2022/07/11 09:25:43;;;;;;;9.88;2.10;;;;;;;17.72;62.93;98884.20;1394028;84;21087;-72
2022/07/11 09:27:48;;;;;;;12.43;2.22;;;;;;;17.57;63.02;98884.09;1398126;82;21529;-72
2022/07/11 09:29:49;;;;;;;8.98;2.00;;;;;;;17.49;63.18;98885.55;1394243;84;21067;-72
2022/07/11 09:31:51;;;;;;;33.53;2.42;;;;;;;17.43;62.99;98876.72;1395210;84;21043;-72
2022/07/11 09:34:03;;;;;;;6.45;1.77;;;;;;;17.42;62.81;98875.01;1392292;84;21071;-71
2022/07/11 09:36:04;;;;;;;5.53;1.85;;;;;;;17.51;63.00;98868.97;1397225;84;20997;-72
2022/07/11 09:38:10;;;;;;;11.97;1.85;;;;;;;17.64;62.31;98870.63;1395811;84;21016;-72
2022/07/11 09:40:15;;;;;;;3.52;1.40;;;;;;;17.64;62.20;98878.63;1393643;83;21048;-72
2022/07/11 09:42:16;;;;;;;14.58;2.72;;;;;;;17.65;62.28;98873.20;1390306;84;21028;-72
2022/07/11 09:44:30;;;;;;;6.65;1.82;;;;;;;17.80;61.79;98874.27;1393143;83;21845;-72
2022/07/11 09:46:31;;;;;;;7.03;1.15;;;;;;;18.11;62.00;98875.83;1393599;83;21075;-76
2022/07/11 09:48:33;;;;;;;7.60;1.47;;;;;;;18.45;61.13;98868.58;1373710;84;21076;-71
2022/07/11 09:50:34;;;;;;;6.33;1.65;;;;;;;18.72;60.55;98865.94;1392601;84;21028;-72
2022/07/11 09:52:35;;;;;;;6.90;1.55;;;;;;;18.68;60.52;98817.78;1393272;84;21559;-73
2022/07/11 09:55:00;;;;;;;5.70;1.67;;;;;;;19.18;59.76;98875.91;1389991;82;21041;-71